sensor_id;sensor_type;location;lat;lon;timestamp;P1;durP1;ratioP1;P2;durP2;ratioP2
24613;SDS011;12760;46.296;25.290;2023-02-24T00:00:06;2.13;;;2.13;;
24613;SDS011;12760;46.296;25.290;2023-02-24T00:02:57;2.20;;;2.20;;
24613;SDS011;12760;46.296;25.290;2023-02-24T00:05:23;4.73;;;4.33;;
24613;SDS011;12760;46.296;25.290;2023-02-24T00:07:49;3.43;;;3.23;;
24613;SDS011;12760;46.296;25.290;2023-02-24T00:10:15;3.90;;;3.50;;
24613;SDS011;12760;46.296;25.290;2023-02-24T00:12:43;4.33;;;4.20;;
24613;SDS011;12760;46.296;25.290;2023-02-24T00:15:13;2.70;;;2.60;;
24613;SDS011;12760;46.296;25.290;2023-02-24T00:17:40;3.00;;;2.80;;
24613;SDS011;12760;46.296;25.290;2023-02-24T00:20:10;2.03;;;2.03;;
24613;SDS011;12760;46.296;25.290;2023-02-24T00:22:38;3.83;;;3.70;;
24613;SDS011;12760;46.296;25.290;2023-02-24T00:25:04;2.73;;;2.63;;
24613;SDS011;12760;46.296;25.290;2023-02-24T00:27:30;2.70;;;2.60;;
24613;SDS011;12760;46.296;25.290;2023-02-24T00:29:56;2.80;;;2.70;;
24613;SDS011;12760;46.296;25.290;2023-02-24T00:32:22;3.83;;;3.73;;
24613;SDS011;12760;46.296;25.290;2023-02-24T00:34:48;7.43;;;3.37;;
24613;SDS011;12760;46.296;25.290;2023-02-24T00:37:14;4.70;;;3.93;;
24613;SDS011;12760;46.296;25.290;2023-02-24T00:39:39;4.10;;;3.80;;
24613;SDS011;12760;46.296;25.290;2023-02-24T00:42:08;2.80;;;2.70;;
24613;SDS011;12760;46.296;25.290;2023-02-24T00:44:37;5.23;;;4.83;;
24613;SDS011;12760;46.296;25.290;2023-02-24T00:47:08;4.00;;;3.90;;
24613;SDS011;12760;46.296;25.290;2023-02-24T00:49:34;4.47;;;4.27;;
24613;SDS011;12760;46.296;25.290;2023-02-24T00:52:16;2.70;;;2.60;;
24613;SDS011;12760;46.296;25.290;2023-02-24T00:54:43;4.60;;;4.27;;
24613;SDS011;12760;46.296;25.290;2023-02-24T00:57:12;14.90;;;5.73;;
24613;SDS011;12760;46.296;25.290;2023-02-24T00:59:41;5.10;;;3.80;;
24613;SDS011;12760;46.296;25.290;2023-02-24T01:02:11;4.63;;;4.33;;
24613;SDS011;12760;46.296;25.290;2023-02-24T01:04:37;3.03;;;2.93;;
24613;SDS011;12760;46.296;25.290;2023-02-24T01:07:03;5.40;;;5.00;;
24613;SDS011;12760;46.296;25.290;2023-02-24T01:09:35;5.83;;;5.50;;
24613;SDS011;12760;46.296;25.290;2023-02-24T01:12:02;8.40;;;4.43;;
24613;SDS011;12760;46.296;25.290;2023-02-24T01:14:47;8.23;;;3.03;;
24613;SDS011;12760;46.296;25.290;2023-02-24T01:17:15;3.77;;;3.60;;
24613;SDS011;12760;46.296;25.290;2023-02-24T01:19:42;8.80;;;3.90;;
24613;SDS011;12760;46.296;25.290;2023-02-24T01:22:10;2.47;;;2.47;;
24613;SDS011;12760;46.296;25.290;2023-02-24T01:24:39;2.03;;;2.03;;
24613;SDS011;12760;46.296;25.290;2023-02-24T01:27:06;2.97;;;2.90;;
24613;SDS011;12760;46.296;25.290;2023-02-24T01:29:33;1.80;;;1.80;;
24613;SDS011;12760;46.296;25.290;2023-02-24T01:32:06;2.97;;;2.87;;
24613;SDS011;12760;46.296;25.290;2023-02-24T01:34:37;3.60;;;3.50;;
24613;SDS011;12760;46.296;25.290;2023-02-24T01:37:03;3.03;;;2.93;;
24613;SDS011;12760;46.296;25.290;2023-02-24T01:39:29;7.07;;;5.70;;
24613;SDS011;12760;46.296;25.290;2023-02-24T01:41:54;3.37;;;3.27;;
24613;SDS011;12760;46.296;25.290;2023-02-24T01:46:51;2.50;;;2.40;;
24613;SDS011;12760;46.296;25.290;2023-02-24T01:51:59;2.10;;;2.10;;
24613;SDS011;12760;46.296;25.290;2023-02-24T01:54:41;2.37;;;2.37;;
24613;SDS011;12760;46.296;25.290;2023-02-24T01:57:12;2.33;;;2.33;;
24613;SDS011;12760;46.296;25.290;2023-02-24T01:59:41;2.27;;;2.27;;
24613;SDS011;12760;46.296;25.290;2023-02-24T02:02:08;2.60;;;2.53;;
24613;SDS011;12760;46.296;25.290;2023-02-24T02:04:37;2.23;;;2.13;;
24613;SDS011;12760;46.296;25.290;2023-02-24T02:07:10;2.50;;;2.40;;
24613;SDS011;12760;46.296;25.290;2023-02-24T02:09:40;3.67;;;3.57;;
24613;SDS011;12760;46.296;25.290;2023-02-24T02:12:07;5.60;;;4.57;;
24613;SDS011;12760;46.296;25.290;2023-02-24T02:14:34;2.63;;;2.53;;
24613;SDS011;12760;46.296;25.290;2023-02-24T02:31:03;7.60;;;6.73;;
24613;SDS011;12760;46.296;25.290;2023-02-24T02:36:51;2.87;;;2.80;;
24613;SDS011;12760;46.296;25.290;2023-02-24T02:39:44;2.43;;;2.37;;
24613;SDS011;12760;46.296;25.290;2023-02-24T02:42:55;4.30;;;4.20;;
24613;SDS011;12760;46.296;25.290;2023-02-24T02:48:12;5.93;;;5.57;;
24613;SDS011;12760;46.296;25.290;2023-02-24T02:53:13;7.17;;;3.70;;
24613;SDS011;12760;46.296;25.290;2023-02-24T02:58:35;3.67;;;3.50;;
24613;SDS011;12760;46.296;25.290;2023-02-24T03:01:04;4.60;;;4.20;;
24613;SDS011;12760;46.296;25.290;2023-02-24T03:03:41;3.67;;;3.53;;
24613;SDS011;12760;46.296;25.290;2023-02-24T03:06:18;2.63;;;2.60;;
24613;SDS011;12760;46.296;25.290;2023-02-24T03:08:50;6.60;;;6.10;;
24613;SDS011;12760;46.296;25.290;2023-02-24T03:11:20;16.37;;;4.83;;
24613;SDS011;12760;46.296;25.290;2023-02-24T03:13:47;10.70;;;5.17;;
24613;SDS011;12760;46.296;25.290;2023-02-24T03:16:17;3.47;;;3.37;;
24613;SDS011;12760;46.296;25.290;2023-02-24T03:18:45;2.80;;;2.70;;
24613;SDS011;12760;46.296;25.290;2023-02-24T03:21:28;5.80;;;5.37;;
24613;SDS011;12760;46.296;25.290;2023-02-24T03:23:58;2.90;;;2.80;;
24613;SDS011;12760;46.296;25.290;2023-02-24T03:32:20;4.80;;;4.60;;
24613;SDS011;12760;46.296;25.290;2023-02-24T03:35:11;4.10;;;3.90;;
24613;SDS011;12760;46.296;25.290;2023-02-24T03:37:43;5.83;;;5.53;;
24613;SDS011;12760;46.296;25.290;2023-02-24T03:40:11;1.73;;;1.73;;
24613;SDS011;12760;46.296;25.290;2023-02-24T03:42:46;3.70;;;3.60;;
24613;SDS011;12760;46.296;25.290;2023-02-24T03:45:16;3.97;;;3.77;;
24613;SDS011;12760;46.296;25.290;2023-02-24T03:47:44;2.97;;;2.87;;
24613;SDS011;12760;46.296;25.290;2023-02-24T03:50:14;3.33;;;3.23;;
24613;SDS011;12760;46.296;25.290;2023-02-24T04:03:48;2.73;;;2.63;;
24613;SDS011;12760;46.296;25.290;2023-02-24T04:06:28;3.20;;;3.10;;
24613;SDS011;12760;46.296;25.290;2023-02-24T04:11:27;3.40;;;3.20;;
24613;SDS011;12760;46.296;25.290;2023-02-24T04:14:06;1.90;;;1.90;;
24613;SDS011;12760;46.296;25.290;2023-02-24T04:19:32;9.27;;;7.67;;
24613;SDS011;12760;46.296;25.290;2023-02-24T04:22:03;4.40;;;4.17;;
24613;SDS011;12760;46.296;25.290;2023-02-24T04:24:34;18.80;;;4.20;;
24613;SDS011;12760;46.296;25.290;2023-02-24T04:27:03;3.03;;;2.93;;
24613;SDS011;12760;46.296;25.290;2023-02-24T04:29:34;10.30;;;6.63;;
24613;SDS011;12760;46.296;25.290;2023-02-24T04:32:05;4.53;;;4.33;;
24613;SDS011;12760;46.296;25.290;2023-02-24T04:34:34;4.17;;;3.97;;
24613;SDS011;12760;46.296;25.290;2023-02-24T04:37:00;6.50;;;6.10;;
24613;SDS011;12760;46.296;25.290;2023-02-24T04:39:26;4.33;;;4.03;;
24613;SDS011;12760;46.296;25.290;2023-02-24T04:41:53;3.70;;;3.50;;
24613;SDS011;12760;46.296;25.290;2023-02-24T04:44:21;5.50;;;5.07;;
24613;SDS011;12760;46.296;25.290;2023-02-24T04:46:48;2.90;;;2.80;;
24613;SDS011;12760;46.296;25.290;2023-02-24T04:49:15;4.27;;;3.97;;
24613;SDS011;12760;46.296;25.290;2023-02-24T04:51:42;7.00;;;6.47;;
24613;SDS011;12760;46.296;25.290;2023-02-24T04:54:09;4.43;;;4.17;;
24613;SDS011;12760;46.296;25.290;2023-02-24T04:56:38;6.93;;;6.50;;
24613;SDS011;12760;46.296;25.290;2023-02-24T04:59:05;4.33;;;4.13;;
24613;SDS011;12760;46.296;25.290;2023-02-24T05:01:31;5.53;;;3.23;;
24613;SDS011;12760;46.296;25.290;2023-02-24T05:03:57;3.27;;;3.17;;
24613;SDS011;12760;46.296;25.290;2023-02-24T05:06:24;8.03;;;6.80;;
24613;SDS011;12760;46.296;25.290;2023-02-24T05:08:49;6.00;;;5.70;;
24613;SDS011;12760;46.296;25.290;2023-02-24T05:11:17;2.20;;;2.20;;
24613;SDS011;12760;46.296;25.290;2023-02-24T05:13:43;8.43;;;6.63;;
24613;SDS011;12760;46.296;25.290;2023-02-24T05:16:10;4.13;;;4.03;;
24613;SDS011;12760;46.296;25.290;2023-02-24T05:18:37;10.37;;;9.40;;
24613;SDS011;12760;46.296;25.290;2023-02-24T05:21:05;15.60;;;7.17;;
24613;SDS011;12760;46.296;25.290;2023-02-24T05:23:52;5.53;;;5.23;;
24613;SDS011;12760;46.296;25.290;2023-02-24T05:26:19;6.33;;;5.93;;
24613;SDS011;12760;46.296;25.290;2023-02-24T05:28:48;4.60;;;4.40;;
24613;SDS011;12760;46.296;25.290;2023-02-24T05:31:17;4.60;;;4.40;;
24613;SDS011;12760;46.296;25.290;2023-02-24T05:33:45;7.30;;;6.00;;
24613;SDS011;12760;46.296;25.290;2023-02-24T05:36:15;7.23;;;6.60;;
24613;SDS011;12760;46.296;25.290;2023-02-24T05:38:42;3.53;;;3.43;;
24613;SDS011;12760;46.296;25.290;2023-02-24T05:41:10;4.83;;;4.63;;
24613;SDS011;12760;46.296;25.290;2023-02-24T05:43:44;8.43;;;5.90;;
24613;SDS011;12760;46.296;25.290;2023-02-24T05:46:16;4.53;;;4.27;;
24613;SDS011;12760;46.296;25.290;2023-02-24T05:48:43;4.10;;;3.90;;
24613;SDS011;12760;46.296;25.290;2023-02-24T05:51:15;7.50;;;7.00;;
24613;SDS011;12760;46.296;25.290;2023-02-24T05:53:41;5.27;;;5.07;;
24613;SDS011;12760;46.296;25.290;2023-02-24T05:56:07;6.13;;;4.57;;
24613;SDS011;12760;46.296;25.290;2023-02-24T05:58:34;5.93;;;5.50;;
24613;SDS011;12760;46.296;25.290;2023-02-24T06:01:12;6.93;;;6.50;;
24613;SDS011;12760;46.296;25.290;2023-02-24T06:03:45;4.70;;;4.50;;
24613;SDS011;12760;46.296;25.290;2023-02-24T06:06:12;3.40;;;3.30;;
24613;SDS011;12760;46.296;25.290;2023-02-24T06:08:42;4.03;;;3.87;;
24613;SDS011;12760;46.296;25.290;2023-02-24T06:11:15;5.97;;;5.60;;
24613;SDS011;12760;46.296;25.290;2023-02-24T06:13:43;5.77;;;5.47;;
24613;SDS011;12760;46.296;25.290;2023-02-24T06:16:13;3.80;;;3.70;;
24613;SDS011;12760;46.296;25.290;2023-02-24T06:18:40;6.60;;;6.03;;
24613;SDS011;12760;46.296;25.290;2023-02-24T06:21:06;6.23;;;5.73;;
24613;SDS011;12760;46.296;25.290;2023-02-24T06:23:32;6.93;;;6.63;;
24613;SDS011;12760;46.296;25.290;2023-02-24T06:26:02;7.30;;;6.73;;
24613;SDS011;12760;46.296;25.290;2023-02-24T06:28:29;8.23;;;7.67;;
24613;SDS011;12760;46.296;25.290;2023-02-24T06:30:55;4.80;;;4.60;;
24613;SDS011;12760;46.296;25.290;2023-02-24T06:33:21;7.40;;;6.80;;
24613;SDS011;12760;46.296;25.290;2023-02-24T06:35:50;12.63;;;9.47;;
24613;SDS011;12760;46.296;25.290;2023-02-24T06:38:17;17.13;;;9.70;;
24613;SDS011;12760;46.296;25.290;2023-02-24T06:40:43;6.27;;;6.00;;
24613;SDS011;12760;46.296;25.290;2023-02-24T06:43:11;12.80;;;11.83;;
24613;SDS011;12760;46.296;25.290;2023-02-24T06:45:37;12.70;;;11.43;;
24613;SDS011;12760;46.296;25.290;2023-02-24T06:48:02;11.20;;;10.60;;
24613;SDS011;12760;46.296;25.290;2023-02-24T06:50:28;11.53;;;10.40;;
24613;SDS011;12760;46.296;25.290;2023-02-24T06:52:55;27.70;;;22.87;;
24613;SDS011;12760;46.296;25.290;2023-02-24T06:55:25;19.57;;;15.53;;
24613;SDS011;12760;46.296;25.290;2023-02-24T06:57:56;16.03;;;14.67;;
24613;SDS011;12760;46.296;25.290;2023-02-24T07:00:23;15.37;;;13.67;;
24613;SDS011;12760;46.296;25.290;2023-02-24T07:03:12;8.27;;;7.83;;
24613;SDS011;12760;46.296;25.290;2023-02-24T07:05:46;5.83;;;5.53;;
24613;SDS011;12760;46.296;25.290;2023-02-24T07:08:35;11.13;;;10.43;;
24613;SDS011;12760;46.296;25.290;2023-02-24T07:11:02;8.93;;;8.03;;
24613;SDS011;12760;46.296;25.290;2023-02-24T07:13:30;9.07;;;8.47;;
24613;SDS011;12760;46.296;25.290;2023-02-24T07:15:58;7.87;;;7.23;;
24613;SDS011;12760;46.296;25.290;2023-02-24T07:18:31;15.73;;;14.17;;
24613;SDS011;12760;46.296;25.290;2023-02-24T07:21:00;12.10;;;9.50;;
24613;SDS011;12760;46.296;25.290;2023-02-24T07:23:29;34.50;;;9.50;;
24613;SDS011;12760;46.296;25.290;2023-02-24T07:25:56;7.63;;;7.23;;
24613;SDS011;12760;46.296;25.290;2023-02-24T07:28:23;14.30;;;13.00;;
24613;SDS011;12760;46.296;25.290;2023-02-24T07:30:51;12.07;;;11.13;;
24613;SDS011;12760;46.296;25.290;2023-02-24T07:33:17;8.10;;;7.57;;
24613;SDS011;12760;46.296;25.290;2023-02-24T07:35:50;6.77;;;6.27;;
24613;SDS011;12760;46.296;25.290;2023-02-24T07:38:16;12.47;;;9.10;;
24613;SDS011;12760;46.296;25.290;2023-02-24T07:40:46;20.87;;;12.43;;
24613;SDS011;12760;46.296;25.290;2023-02-24T07:43:14;14.87;;;11.23;;
24613;SDS011;12760;46.296;25.290;2023-02-24T07:45:40;8.37;;;7.90;;
24613;SDS011;12760;46.296;25.290;2023-02-24T07:48:06;12.13;;;11.10;;
24613;SDS011;12760;46.296;25.290;2023-02-24T07:50:32;10.70;;;9.63;;
24613;SDS011;12760;46.296;25.290;2023-02-24T07:52:58;9.57;;;8.83;;
24613;SDS011;12760;46.296;25.290;2023-02-24T07:55:24;8.97;;;8.37;;
24613;SDS011;12760;46.296;25.290;2023-02-24T07:57:55;6.83;;;6.53;;
24613;SDS011;12760;46.296;25.290;2023-02-24T08:00:21;13.60;;;12.40;;
24613;SDS011;12760;46.296;25.290;2023-02-24T08:02:53;7.60;;;6.43;;
24613;SDS011;12760;46.296;25.290;2023-02-24T08:05:19;13.77;;;10.20;;
24613;SDS011;12760;46.296;25.290;2023-02-24T08:07:48;6.93;;;5.57;;
24613;SDS011;12760;46.296;25.290;2023-02-24T08:10:16;9.90;;;8.70;;
24613;SDS011;12760;46.296;25.290;2023-02-24T08:12:49;8.77;;;7.67;;
24613;SDS011;12760;46.296;25.290;2023-02-24T08:15:22;8.87;;;8.17;;
24613;SDS011;12760;46.296;25.290;2023-02-24T08:17:51;12.80;;;10.63;;
24613;SDS011;12760;46.296;25.290;2023-02-24T08:20:19;4.13;;;4.03;;
24613;SDS011;12760;46.296;25.290;2023-02-24T08:22:46;7.17;;;6.77;;
24613;SDS011;12760;46.296;25.290;2023-02-24T08:25:18;9.20;;;8.50;;
24613;SDS011;12760;46.296;25.290;2023-02-24T08:27:47;14.17;;;12.43;;
24613;SDS011;12760;46.296;25.290;2023-02-24T08:30:20;10.60;;;9.73;;
24613;SDS011;12760;46.296;25.290;2023-02-24T08:32:53;10.27;;;9.37;;
24613;SDS011;12760;46.296;25.290;2023-02-24T08:35:27;10.23;;;9.23;;
24613;SDS011;12760;46.296;25.290;2023-02-24T08:38:01;10.40;;;9.73;;
24613;SDS011;12760;46.296;25.290;2023-02-24T08:40:39;12.30;;;10.97;;
24613;SDS011;12760;46.296;25.290;2023-02-24T08:45:56;10.10;;;8.90;;
24613;SDS011;12760;46.296;25.290;2023-02-24T08:51:32;7.23;;;6.83;;
24613;SDS011;12760;46.296;25.290;2023-02-24T08:54:01;7.23;;;5.23;;
24613;SDS011;12760;46.296;25.290;2023-02-24T08:56:35;4.53;;;4.37;;
24613;SDS011;12760;46.296;25.290;2023-02-24T08:59:07;3.10;;;3.00;;
24613;SDS011;12760;46.296;25.290;2023-02-24T09:01:53;6.77;;;6.37;;
24613;SDS011;12760;46.296;25.290;2023-02-24T09:04:40;25.30;;;7.40;;
24613;SDS011;12760;46.296;25.290;2023-02-24T09:07:11;3.50;;;3.30;;
24613;SDS011;12760;46.296;25.290;2023-02-24T09:09:39;16.10;;;10.60;;
24613;SDS011;12760;46.296;25.290;2023-02-24T09:12:06;4.63;;;4.30;;
24613;SDS011;12760;46.296;25.290;2023-02-24T09:14:34;5.47;;;4.57;;
24613;SDS011;12760;46.296;25.290;2023-02-24T09:17:02;5.90;;;5.60;;
24613;SDS011;12760;46.296;25.290;2023-02-24T09:22:27;2.90;;;2.80;;
24613;SDS011;12760;46.296;25.290;2023-02-24T09:30:32;3.57;;;3.47;;
24613;SDS011;12760;46.296;25.290;2023-02-24T09:33:00;9.03;;;5.83;;
24613;SDS011;12760;46.296;25.290;2023-02-24T09:35:43;1.73;;;1.73;;
24613;SDS011;12760;46.296;25.290;2023-02-24T09:38:11;5.60;;;4.30;;
24613;SDS011;12760;46.296;25.290;2023-02-24T09:40:41;5.33;;;4.83;;
24613;SDS011;12760;46.296;25.290;2023-02-24T09:43:21;6.33;;;4.93;;
24613;SDS011;12760;46.296;25.290;2023-02-24T09:45:56;3.60;;;3.40;;
24613;SDS011;12760;46.296;25.290;2023-02-24T09:48:31;4.33;;;4.13;;
24613;SDS011;12760;46.296;25.290;2023-02-24T09:51:09;2.77;;;2.67;;
24613;SDS011;12760;46.296;25.290;2023-02-24T09:53:45;5.97;;;5.40;;
24613;SDS011;12760;46.296;25.290;2023-02-24T09:56:30;6.73;;;6.13;;
24613;SDS011;12760;46.296;25.290;2023-02-24T10:02:17;5.67;;;5.20;;
24613;SDS011;12760;46.296;25.290;2023-02-24T10:05:21;7.60;;;6.33;;
24613;SDS011;12760;46.296;25.290;2023-02-24T10:08:14;6.53;;;3.80;;
24613;SDS011;12760;46.296;25.290;2023-02-24T10:10:49;2.70;;;2.60;;
24613;SDS011;12760;46.296;25.290;2023-02-24T10:13:31;5.93;;;5.37;;
24613;SDS011;12760;46.296;25.290;2023-02-24T10:16:01;2.27;;;2.27;;
24613;SDS011;12760;46.296;25.290;2023-02-24T10:21:59;4.53;;;4.13;;
24613;SDS011;12760;46.296;25.290;2023-02-24T10:25:39;5.20;;;4.70;;
24613;SDS011;12760;46.296;25.290;2023-02-24T10:31:12;26.63;;;4.27;;
24613;SDS011;12760;46.296;25.290;2023-02-24T10:33:56;14.47;;;7.03;;
24613;SDS011;12760;46.296;25.290;2023-02-24T10:36:25;2.37;;;2.27;;
24613;SDS011;12760;46.296;25.290;2023-02-24T10:41:56;6.20;;;4.20;;
24613;SDS011;12760;46.296;25.290;2023-02-24T10:44:45;2.53;;;2.43;;
24613;SDS011;12760;46.296;25.290;2023-02-24T10:47:22;3.17;;;2.97;;
24613;SDS011;12760;46.296;25.290;2023-02-24T10:49:59;1.63;;;1.63;;
24613;SDS011;12760;46.296;25.290;2023-02-24T10:58:17;2.70;;;2.60;;
24613;SDS011;12760;46.296;25.290;2023-02-24T11:00:53;2.08;;;2.08;;
24613;SDS011;12760;46.296;25.290;2023-02-24T11:03:38;3.90;;;3.30;;
24613;SDS011;12760;46.296;25.290;2023-02-24T11:06:24;4.28;;;4.00;;
24613;SDS011;12760;46.296;25.290;2023-02-24T11:09:14;3.60;;;3.40;;
24613;SDS011;12760;46.296;25.290;2023-02-24T11:15:20;4.55;;;4.15;;
24613;SDS011;12760;46.296;25.290;2023-02-24T11:18:13;12.38;;;2.90;;
24613;SDS011;12760;46.296;25.290;2023-02-24T11:20:44;8.30;;;5.90;;
24613;SDS011;12760;46.296;25.290;2023-02-24T11:23:35;5.93;;;5.63;;
24613;SDS011;12760;46.296;25.290;2023-02-24T11:26:32;3.22;;;3.05;;
24613;SDS011;12760;46.296;25.290;2023-02-24T11:31:51;30.40;;;4.85;;
24613;SDS011;12760;46.296;25.290;2023-02-24T11:34:40;14.95;;;6.57;;
24613;SDS011;12760;46.296;25.290;2023-02-24T11:37:22;32.50;;;3.05;;
24613;SDS011;12760;46.296;25.290;2023-02-24T11:40:06;3.80;;;3.60;;
24613;SDS011;12760;46.296;25.290;2023-02-24T11:45:27;3.70;;;3.60;;
24613;SDS011;12760;46.296;25.290;2023-02-24T11:53:51;9.18;;;6.25;;
24613;SDS011;12760;46.296;25.290;2023-02-24T11:56:27;2.42;;;2.33;;
24613;SDS011;12760;46.296;25.290;2023-02-24T12:04:25;2.88;;;2.72;;
24613;SDS011;12760;46.296;25.290;2023-02-24T12:09:32;8.88;;;4.82;;
24613;SDS011;12760;46.296;25.290;2023-02-24T12:14:49;2.30;;;2.22;;
24613;SDS011;12760;46.296;25.290;2023-02-24T12:20:20;2.85;;;2.75;;
24613;SDS011;12760;46.296;25.290;2023-02-24T12:50:47;3.03;;;2.88;;
24613;SDS011;12760;46.296;25.290;2023-02-24T12:53:29;3.28;;;3.15;;
24613;SDS011;12760;46.296;25.290;2023-02-24T12:56:14;1.10;;;1.10;;
24613;SDS011;12760;46.296;25.290;2023-02-24T12:58:49;2.63;;;2.53;;
24613;SDS011;12760;46.296;25.290;2023-02-24T13:05:03;2.08;;;2.08;;
24613;SDS011;12760;46.296;25.290;2023-02-24T13:07:33;4.88;;;4.57;;
24613;SDS011;12760;46.296;25.290;2023-02-24T13:10:15;4.20;;;4.00;;
24613;SDS011;12760;46.296;25.290;2023-02-24T13:12:55;4.93;;;4.63;;
24613;SDS011;12760;46.296;25.290;2023-02-24T13:15:36;2.00;;;2.00;;
24613;SDS011;12760;46.296;25.290;2023-02-24T13:18:21;2.88;;;2.72;;
24613;SDS011;12760;46.296;25.290;2023-02-24T13:20:48;2.65;;;2.58;;
24613;SDS011;12760;46.296;25.290;2023-02-24T13:23:25;2.17;;;2.08;;
24613;SDS011;12760;46.296;25.290;2023-02-24T13:25:52;3.60;;;3.50;;
24613;SDS011;12760;46.296;25.290;2023-02-24T13:28:29;3.45;;;3.25;;
24613;SDS011;12760;46.296;25.290;2023-02-24T13:31:09;3.50;;;3.30;;
24613;SDS011;12760;46.296;25.290;2023-02-24T13:33:41;1.95;;;1.95;;
24613;SDS011;12760;46.296;25.290;2023-02-24T13:36:23;14.43;;;5.20;;
24613;SDS011;12760;46.296;25.290;2023-02-24T13:38:49;2.50;;;2.40;;
24613;SDS011;12760;46.296;25.290;2023-02-24T13:46:22;1.90;;;1.90;;
24613;SDS011;12760;46.296;25.290;2023-02-24T13:51:54;2.83;;;2.72;;
24613;SDS011;12760;46.296;25.290;2023-02-24T14:00:25;8.32;;;7.57;;
24613;SDS011;12760;46.296;25.290;2023-02-24T14:03:11;9.65;;;8.85;;
24613;SDS011;12760;46.296;25.290;2023-02-24T14:05:46;10.55;;;9.80;;
24613;SDS011;12760;46.296;25.290;2023-02-24T14:08:20;9.40;;;8.73;;
24613;SDS011;12760;46.296;25.290;2023-02-24T14:11:06;8.02;;;7.20;;
24613;SDS011;12760;46.296;25.290;2023-02-24T14:13:36;4.32;;;4.10;;
24613;SDS011;12760;46.296;25.290;2023-02-24T14:16:05;3.65;;;3.55;;
24613;SDS011;12760;46.296;25.290;2023-02-24T14:18:33;5.22;;;4.93;;
24613;SDS011;12760;46.296;25.290;2023-02-24T14:21:00;5.53;;;4.97;;
24613;SDS011;12760;46.296;25.290;2023-02-24T14:23:27;5.07;;;3.85;;
24613;SDS011;12760;46.296;25.290;2023-02-24T14:25:59;8.07;;;4.82;;
24613;SDS011;12760;46.296;25.290;2023-02-24T14:28:30;4.85;;;4.55;;
24613;SDS011;12760;46.296;25.290;2023-02-24T14:30:58;4.47;;;4.28;;
24613;SDS011;12760;46.296;25.290;2023-02-24T14:33:31;3.77;;;3.63;;
24613;SDS011;12760;46.296;25.290;2023-02-24T14:35:59;4.43;;;4.23;;
24613;SDS011;12760;46.296;25.290;2023-02-24T14:38:34;4.90;;;4.60;;
24613;SDS011;12760;46.296;25.290;2023-02-24T14:41:02;3.70;;;3.60;;
24613;SDS011;12760;46.296;25.290;2023-02-24T14:43:29;3.75;;;3.50;;
24613;SDS011;12760;46.296;25.290;2023-02-24T14:45:55;8.17;;;7.47;;
24613;SDS011;12760;46.296;25.290;2023-02-24T14:50:54;5.85;;;5.50;;
24613;SDS011;12760;46.296;25.290;2023-02-24T14:53:45;6.17;;;5.57;;
24613;SDS011;12760;46.296;25.290;2023-02-24T14:56:15;6.75;;;5.30;;
24613;SDS011;12760;46.296;25.290;2023-02-24T14:58:57;10.40;;;7.32;;
24613;SDS011;12760;46.296;25.290;2023-02-24T15:01:33;9.33;;;5.60;;
24613;SDS011;12760;46.296;25.290;2023-02-24T15:04:11;3.33;;;3.23;;
24613;SDS011;12760;46.296;25.290;2023-02-24T15:06:52;8.75;;;6.65;;
24613;SDS011;12760;46.296;25.290;2023-02-24T15:09:18;50.20;;;7.85;;
24613;SDS011;12760;46.296;25.290;2023-02-24T15:11:48;6.03;;;5.73;;
24613;SDS011;12760;46.296;25.290;2023-02-24T15:14:18;6.00;;;5.63;;
24613;SDS011;12760;46.296;25.290;2023-02-24T15:16:53;6.10;;;4.80;;
24613;SDS011;12760;46.296;25.290;2023-02-24T15:22:01;7.10;;;6.57;;
24613;SDS011;12760;46.296;25.290;2023-02-24T15:24:48;3.17;;;2.97;;
24613;SDS011;12760;46.296;25.290;2023-02-24T15:29:42;8.97;;;8.13;;
24613;SDS011;12760;46.296;25.290;2023-02-24T15:32:13;5.70;;;5.43;;
24613;SDS011;12760;46.296;25.290;2023-02-24T15:34:43;4.87;;;4.47;;
24613;SDS011;12760;46.296;25.290;2023-02-24T15:37:14;19.73;;;9.53;;
24613;SDS011;12760;46.296;25.290;2023-02-24T15:39:44;6.23;;;5.87;;
24613;SDS011;12760;46.296;25.290;2023-02-24T15:42:19;5.70;;;5.37;;
24613;SDS011;12760;46.296;25.290;2023-02-24T15:45:35;5.00;;;4.70;;
24613;SDS011;12760;46.296;25.290;2023-02-24T15:47:52;5.07;;;4.77;;
24613;SDS011;12760;46.296;25.290;2023-02-24T15:50:19;4.57;;;4.30;;
24613;SDS011;12760;46.296;25.290;2023-02-24T15:52:45;4.53;;;4.10;;
24613;SDS011;12760;46.296;25.290;2023-02-24T15:55:15;5.23;;;4.97;;
24613;SDS011;12760;46.296;25.290;2023-02-24T15:57:42;4.87;;;4.57;;
24613;SDS011;12760;46.296;25.290;2023-02-24T16:00:13;6.33;;;5.87;;
24613;SDS011;12760;46.296;25.290;2023-02-24T16:02:41;3.87;;;3.67;;
24613;SDS011;12760;46.296;25.290;2023-02-24T16:05:13;5.73;;;5.33;;
24613;SDS011;12760;46.296;25.290;2023-02-24T16:07:39;7.63;;;7.13;;
24613;SDS011;12760;46.296;25.290;2023-02-24T16:10:13;6.50;;;5.63;;
24613;SDS011;12760;46.296;25.290;2023-02-24T16:12:57;8.87;;;8.30;;
24613;SDS011;12760;46.296;25.290;2023-02-24T16:15:33;15.50;;;6.40;;
24613;SDS011;12760;46.296;25.290;2023-02-24T16:18:03;5.80;;;4.83;;
24613;SDS011;12760;46.296;25.290;2023-02-24T16:20:38;10.73;;;7.70;;
24613;SDS011;12760;46.296;25.290;2023-02-24T16:23:04;8.77;;;6.67;;
24613;SDS011;12760;46.296;25.290;2023-02-24T16:25:39;9.30;;;8.73;;
24613;SDS011;12760;46.296;25.290;2023-02-24T16:28:16;11.23;;;9.23;;
24613;SDS011;12760;46.296;25.290;2023-02-24T16:30:44;4.27;;;4.07;;
24613;SDS011;12760;46.296;25.290;2023-02-24T16:33:10;6.80;;;6.40;;
24613;SDS011;12760;46.296;25.290;2023-02-24T16:35:37;18.73;;;11.27;;
24613;SDS011;12760;46.296;25.290;2023-02-24T16:38:06;9.30;;;8.77;;
24613;SDS011;12760;46.296;25.290;2023-02-24T16:40:39;8.30;;;7.50;;
24613;SDS011;12760;46.296;25.290;2023-02-24T16:43:07;17.60;;;8.90;;
24613;SDS011;12760;46.296;25.290;2023-02-24T16:45:33;11.83;;;7.00;;
24613;SDS011;12760;46.296;25.290;2023-02-24T16:48:00;9.27;;;8.47;;
24613;SDS011;12760;46.296;25.290;2023-02-24T16:50:35;13.37;;;8.13;;
24613;SDS011;12760;46.296;25.290;2023-02-24T16:53:03;7.50;;;6.93;;
24613;SDS011;12760;46.296;25.290;2023-02-24T16:55:30;11.00;;;8.83;;
24613;SDS011;12760;46.296;25.290;2023-02-24T16:57:55;9.30;;;8.47;;
24613;SDS011;12760;46.296;25.290;2023-02-24T17:00:22;9.83;;;8.93;;
24613;SDS011;12760;46.296;25.290;2023-02-24T17:02:48;11.13;;;10.13;;
24613;SDS011;12760;46.296;25.290;2023-02-24T17:05:15;5.33;;;4.43;;
24613;SDS011;12760;46.296;25.290;2023-02-24T17:07:44;6.80;;;6.40;;
24613;SDS011;12760;46.296;25.290;2023-02-24T17:10:14;8.77;;;7.67;;
24613;SDS011;12760;46.296;25.290;2023-02-24T17:12:41;8.93;;;8.13;;
24613;SDS011;12760;46.296;25.290;2023-02-24T17:15:07;18.60;;;10.53;;
24613;SDS011;12760;46.296;25.290;2023-02-24T17:17:43;8.53;;;7.73;;
24613;SDS011;12760;46.296;25.290;2023-02-24T17:20:13;9.03;;;8.33;;
24613;SDS011;12760;46.296;25.290;2023-02-24T17:22:40;11.03;;;7.00;;
24613;SDS011;12760;46.296;25.290;2023-02-24T17:25:07;7.67;;;7.17;;
24613;SDS011;12760;46.296;25.290;2023-02-24T17:27:43;6.47;;;5.97;;
24613;SDS011;12760;46.296;25.290;2023-02-24T17:30:12;6.80;;;6.23;;
24613;SDS011;12760;46.296;25.290;2023-02-24T17:32:40;10.53;;;9.47;;
24613;SDS011;12760;46.296;25.290;2023-02-24T17:35:06;8.40;;;7.80;;
24613;SDS011;12760;46.296;25.290;2023-02-24T17:37:32;10.40;;;9.33;;
24613;SDS011;12760;46.296;25.290;2023-02-24T17:39:58;12.10;;;4.60;;
24613;SDS011;12760;46.296;25.290;2023-02-24T17:42:24;9.93;;;7.00;;
24613;SDS011;12760;46.296;25.290;2023-02-24T17:44:50;9.00;;;8.27;;